CMB819 Details

Departure: Daniel K Inouye International Airport (PHNL)
Arrival: Travis Air Force Base (KSUU) at N/A
Route: MKK4 CLUTS R465 CINNY ROVUE OSVEE1
Notes: USTRANSCOM CONTRACT FLIGHT


Current Weather Information
PHNL 171653Z 00000KT 10SM FEW020 FEW044 SCT070 26/22 A3004 RMK AO2 SLP170 VCSH NW T02610217
KSUU 171658Z AUTO 24020G27KT 10SM CLR 22/13 A2979 RMK AO2 PK WND 25030/08 SLP094 T02150131 $